sensor_id;sensor_type;location;lat;lon;timestamp;P1;durP1;ratioP1;P2;durP2;ratioP2
13026;SDS011;6580;42.680;23.324;2024-02-26T00:02:20;26.33;;;20.80;;
13026;SDS011;6580;42.680;23.324;2024-02-26T00:04:47;23.77;;;20.17;;
13026;SDS011;6580;42.680;23.324;2024-02-26T00:07:17;24.97;;;19.93;;
13026;SDS011;6580;42.680;23.324;2024-02-26T00:09:50;24.97;;;19.30;;
13026;SDS011;6580;42.680;23.324;2024-02-26T00:12:23;24.87;;;19.70;;
13026;SDS011;6580;42.680;23.324;2024-02-26T00:14:51;26.27;;;20.07;;
13026;SDS011;6580;42.680;23.324;2024-02-26T00:17:20;25.60;;;19.37;;
13026;SDS011;6580;42.680;23.324;2024-02-26T00:19:49;24.17;;;19.80;;
13026;SDS011;6580;42.680;23.324;2024-02-26T00:22:18;20.80;;;18.40;;
13026;SDS011;6580;42.680;23.324;2024-02-26T00:24:47;21.10;;;18.57;;
13026;SDS011;6580;42.680;23.324;2024-02-26T00:27:14;22.77;;;18.73;;
13026;SDS011;6580;42.680;23.324;2024-02-26T00:29:48;22.73;;;18.70;;
13026;SDS011;6580;42.680;23.324;2024-02-26T00:32:15;22.17;;;18.60;;
13026;SDS011;6580;42.680;23.324;2024-02-26T00:34:43;26.07;;;19.00;;
13026;SDS011;6580;42.680;23.324;2024-02-26T00:37:11;25.77;;;19.10;;
13026;SDS011;6580;42.680;23.324;2024-02-26T00:39:39;23.70;;;18.77;;
13026;SDS011;6580;42.680;23.324;2024-02-26T00:42:06;22.37;;;18.70;;
13026;SDS011;6580;42.680;23.324;2024-02-26T00:44:34;22.87;;;18.27;;
13026;SDS011;6580;42.680;23.324;2024-02-26T00:47:04;26.10;;;19.33;;
13026;SDS011;6580;42.680;23.324;2024-02-26T00:49:31;23.17;;;19.50;;
13026;SDS011;6580;42.680;23.324;2024-02-26T00:51:59;22.87;;;20.37;;
13026;SDS011;6580;42.680;23.324;2024-02-26T00:54:27;26.30;;;20.17;;
13026;SDS011;6580;42.680;23.324;2024-02-26T00:56:55;23.60;;;18.83;;
13026;SDS011;6580;42.680;23.324;2024-02-26T00:59:24;26.90;;;20.03;;
13026;SDS011;6580;42.680;23.324;2024-02-26T01:01:54;23.83;;;18.77;;
13026;SDS011;6580;42.680;23.324;2024-02-26T01:04:30;26.10;;;19.73;;
13026;SDS011;6580;42.680;23.324;2024-02-26T01:06:59;23.03;;;19.43;;
13026;SDS011;6580;42.680;23.324;2024-02-26T01:09:28;23.50;;;19.70;;
13026;SDS011;6580;42.680;23.324;2024-02-26T01:11:57;27.07;;;21.50;;
13026;SDS011;6580;42.680;23.324;2024-02-26T01:14:26;27.67;;;20.87;;
13026;SDS011;6580;42.680;23.324;2024-02-26T01:16:54;28.87;;;20.87;;
13026;SDS011;6580;42.680;23.324;2024-02-26T01:19:24;27.50;;;21.33;;
13026;SDS011;6580;42.680;23.324;2024-02-26T01:21:56;30.47;;;20.87;;
13026;SDS011;6580;42.680;23.324;2024-02-26T01:24:26;25.90;;;21.27;;
13026;SDS011;6580;42.680;23.324;2024-02-26T01:26:53;25.47;;;21.30;;
13026;SDS011;6580;42.680;23.324;2024-02-26T01:29:21;30.47;;;21.00;;
13026;SDS011;6580;42.680;23.324;2024-02-26T01:31:48;25.40;;;20.87;;
13026;SDS011;6580;42.680;23.324;2024-02-26T01:34:15;27.03;;;20.33;;
13026;SDS011;6580;42.680;23.324;2024-02-26T01:36:45;21.50;;;17.20;;
13026;SDS011;6580;42.680;23.324;2024-02-26T01:39:12;21.83;;;18.43;;
13026;SDS011;6580;42.680;23.324;2024-02-26T01:41:41;21.83;;;17.53;;
13026;SDS011;6580;42.680;23.324;2024-02-26T01:44:09;23.83;;;18.90;;
13026;SDS011;6580;42.680;23.324;2024-02-26T01:46:39;23.20;;;18.73;;
13026;SDS011;6580;42.680;23.324;2024-02-26T01:49:08;22.97;;;18.33;;
13026;SDS011;6580;42.680;23.324;2024-02-26T01:51:38;24.07;;;19.33;;
13026;SDS011;6580;42.680;23.324;2024-02-26T01:54:09;24.37;;;18.87;;
13026;SDS011;6580;42.680;23.324;2024-02-26T01:56:36;25.63;;;19.60;;
13026;SDS011;6580;42.680;23.324;2024-02-26T01:59:05;27.10;;;20.70;;
13026;SDS011;6580;42.680;23.324;2024-02-26T02:01:35;28.37;;;20.13;;
13026;SDS011;6580;42.680;23.324;2024-02-26T02:04:05;28.87;;;20.67;;
13026;SDS011;6580;42.680;23.324;2024-02-26T02:06:38;27.63;;;20.30;;
13026;SDS011;6580;42.680;23.324;2024-02-26T02:09:06;22.20;;;18.53;;
13026;SDS011;6580;42.680;23.324;2024-02-26T02:11:36;22.97;;;18.63;;
13026;SDS011;6580;42.680;23.324;2024-02-26T02:14:03;21.57;;;17.43;;
13026;SDS011;6580;42.680;23.324;2024-02-26T02:16:30;22.87;;;17.27;;
13026;SDS011;6580;42.680;23.324;2024-02-26T02:18:58;23.13;;;17.47;;
13026;SDS011;6580;42.680;23.324;2024-02-26T02:21:26;21.00;;;16.73;;
13026;SDS011;6580;42.680;23.324;2024-02-26T02:23:55;20.57;;;16.03;;
13026;SDS011;6580;42.680;23.324;2024-02-26T02:26:22;20.30;;;15.63;;
13026;SDS011;6580;42.680;23.324;2024-02-26T02:28:50;20.43;;;15.00;;
13026;SDS011;6580;42.680;23.324;2024-02-26T02:31:17;19.47;;;14.93;;
13026;SDS011;6580;42.680;23.324;2024-02-26T02:33:44;17.53;;;14.10;;
13026;SDS011;6580;42.680;23.324;2024-02-26T02:36:12;19.57;;;15.03;;
13026;SDS011;6580;42.680;23.324;2024-02-26T02:38:44;18.97;;;15.13;;
13026;SDS011;6580;42.680;23.324;2024-02-26T02:41:15;19.97;;;14.80;;
13026;SDS011;6580;42.680;23.324;2024-02-26T02:43:43;18.37;;;14.97;;
13026;SDS011;6580;42.680;23.324;2024-02-26T02:46:13;19.33;;;14.20;;
13026;SDS011;6580;42.680;23.324;2024-02-26T02:48:41;19.23;;;15.13;;
13026;SDS011;6580;42.680;23.324;2024-02-26T02:51:08;16.30;;;14.13;;
13026;SDS011;6580;42.680;23.324;2024-02-26T02:53:36;18.10;;;13.80;;
13026;SDS011;6580;42.680;23.324;2024-02-26T02:56:04;17.63;;;13.13;;
13026;SDS011;6580;42.680;23.324;2024-02-26T02:58:32;16.73;;;13.87;;
13026;SDS011;6580;42.680;23.324;2024-02-26T03:00:58;18.50;;;14.20;;
13026;SDS011;6580;42.680;23.324;2024-02-26T03:03:27;18.30;;;13.83;;
13026;SDS011;6580;42.680;23.324;2024-02-26T03:05:54;16.53;;;13.33;;
13026;SDS011;6580;42.680;23.324;2024-02-26T03:08:23;17.97;;;13.30;;
13026;SDS011;6580;42.680;23.324;2024-02-26T03:10:51;16.90;;;14.07;;
13026;SDS011;6580;42.680;23.324;2024-02-26T03:13:20;15.53;;;13.87;;
13026;SDS011;6580;42.680;23.324;2024-02-26T03:15:47;17.43;;;14.37;;
13026;SDS011;6580;42.680;23.324;2024-02-26T03:18:19;15.40;;;13.17;;
13026;SDS011;6580;42.680;23.324;2024-02-26T03:20:48;16.10;;;14.47;;
13026;SDS011;6580;42.680;23.324;2024-02-26T03:23:16;21.77;;;14.73;;
13026;SDS011;6580;42.680;23.324;2024-02-26T03:25:44;19.40;;;14.73;;
13026;SDS011;6580;42.680;23.324;2024-02-26T03:28:13;18.97;;;14.87;;
13026;SDS011;6580;42.680;23.324;2024-02-26T03:30:41;18.93;;;15.33;;
13026;SDS011;6580;42.680;23.324;2024-02-26T03:33:09;19.57;;;15.00;;
13026;SDS011;6580;42.680;23.324;2024-02-26T03:35:37;16.47;;;14.70;;
13026;SDS011;6580;42.680;23.324;2024-02-26T03:38:04;20.00;;;14.87;;
13026;SDS011;6580;42.680;23.324;2024-02-26T03:40:30;19.50;;;14.77;;
13026;SDS011;6580;42.680;23.324;2024-02-26T03:42:57;19.37;;;16.17;;
13026;SDS011;6580;42.680;23.324;2024-02-26T03:45:24;20.57;;;16.80;;
13026;SDS011;6580;42.680;23.324;2024-02-26T03:47:54;18.00;;;16.10;;
13026;SDS011;6580;42.680;23.324;2024-02-26T03:50:23;23.97;;;17.90;;
13026;SDS011;6580;42.680;23.324;2024-02-26T03:52:50;23.97;;;19.53;;
13026;SDS011;6580;42.680;23.324;2024-02-26T03:55:18;22.93;;;18.23;;
13026;SDS011;6580;42.680;23.324;2024-02-26T03:57:49;23.50;;;19.03;;
13026;SDS011;6580;42.680;23.324;2024-02-26T04:00:18;23.00;;;19.27;;
13026;SDS011;6580;42.680;23.324;2024-02-26T04:02:46;25.40;;;18.43;;
13026;SDS011;6580;42.680;23.324;2024-02-26T04:05:16;26.70;;;20.10;;
13026;SDS011;6580;42.680;23.324;2024-02-26T04:07:43;25.90;;;19.53;;
13026;SDS011;6580;42.680;23.324;2024-02-26T04:10:10;22.70;;;18.90;;
13026;SDS011;6580;42.680;23.324;2024-02-26T04:12:38;24.77;;;19.00;;
13026;SDS011;6580;42.680;23.324;2024-02-26T04:15:07;25.30;;;19.60;;
13026;SDS011;6580;42.680;23.324;2024-02-26T04:17:35;26.40;;;19.77;;
13026;SDS011;6580;42.680;23.324;2024-02-26T04:20:06;25.23;;;20.50;;
13026;SDS011;6580;42.680;23.324;2024-02-26T04:22:36;23.60;;;19.10;;
13026;SDS011;6580;42.680;23.324;2024-02-26T04:25:04;24.80;;;19.50;;
13026;SDS011;6580;42.680;23.324;2024-02-26T04:27:32;25.17;;;19.90;;
13026;SDS011;6580;42.680;23.324;2024-02-26T04:29:59;26.30;;;20.00;;
13026;SDS011;6580;42.680;23.324;2024-02-26T04:32:26;29.27;;;21.00;;
13026;SDS011;6580;42.680;23.324;2024-02-26T04:34:53;25.37;;;20.20;;
13026;SDS011;6580;42.680;23.324;2024-02-26T04:37:20;27.50;;;21.10;;
13026;SDS011;6580;42.680;23.324;2024-02-26T04:39:52;26.47;;;20.23;;
13026;SDS011;6580;42.680;23.324;2024-02-26T04:42:18;25.27;;;20.13;;
13026;SDS011;6580;42.680;23.324;2024-02-26T04:44:45;25.67;;;20.33;;
13026;SDS011;6580;42.680;23.324;2024-02-26T04:47:13;28.47;;;21.80;;
13026;SDS011;6580;42.680;23.324;2024-02-26T04:49:43;24.93;;;20.63;;
13026;SDS011;6580;42.680;23.324;2024-02-26T04:52:11;28.93;;;20.67;;
13026;SDS011;6580;42.680;23.324;2024-02-26T04:54:38;27.40;;;20.07;;
13026;SDS011;6580;42.680;23.324;2024-02-26T04:57:08;25.37;;;21.03;;
13026;SDS011;6580;42.680;23.324;2024-02-26T04:59:37;24.67;;;21.07;;
13026;SDS011;6580;42.680;23.324;2024-02-26T05:02:06;27.17;;;21.50;;
13026;SDS011;6580;42.680;23.324;2024-02-26T05:04:33;24.07;;;20.77;;
13026;SDS011;6580;42.680;23.324;2024-02-26T05:07:02;29.73;;;21.67;;
13026;SDS011;6580;42.680;23.324;2024-02-26T05:09:30;30.47;;;23.27;;
13026;SDS011;6580;42.680;23.324;2024-02-26T05:11:58;28.03;;;22.07;;
13026;SDS011;6580;42.680;23.324;2024-02-26T05:14:26;28.40;;;22.57;;
13026;SDS011;6580;42.680;23.324;2024-02-26T05:16:53;27.27;;;22.07;;
13026;SDS011;6580;42.680;23.324;2024-02-26T05:19:21;28.63;;;22.77;;
13026;SDS011;6580;42.680;23.324;2024-02-26T05:21:48;26.40;;;22.30;;
13026;SDS011;6580;42.680;23.324;2024-02-26T05:24:15;25.40;;;20.67;;
13026;SDS011;6580;42.680;23.324;2024-02-26T05:26:47;28.20;;;20.60;;
13026;SDS011;6580;42.680;23.324;2024-02-26T05:29:14;30.00;;;21.30;;
13026;SDS011;6580;42.680;23.324;2024-02-26T05:31:43;25.63;;;20.00;;
13026;SDS011;6580;42.680;23.324;2024-02-26T05:34:11;27.00;;;21.80;;
13026;SDS011;6580;42.680;23.324;2024-02-26T05:36:38;25.30;;;19.77;;
13026;SDS011;6580;42.680;23.324;2024-02-26T05:39:06;28.03;;;19.20;;
13026;SDS011;6580;42.680;23.324;2024-02-26T05:41:34;26.57;;;18.97;;
13026;SDS011;6580;42.680;23.324;2024-02-26T05:44:01;25.90;;;19.27;;
13026;SDS011;6580;42.680;23.324;2024-02-26T05:46:28;23.83;;;20.00;;
13026;SDS011;6580;42.680;23.324;2024-02-26T05:48:57;24.53;;;18.93;;
13026;SDS011;6580;42.680;23.324;2024-02-26T05:51:27;22.90;;;18.37;;
13026;SDS011;6580;42.680;23.324;2024-02-26T05:53:54;23.80;;;18.20;;
13026;SDS011;6580;42.680;23.324;2024-02-26T05:56:21;25.50;;;18.90;;
13026;SDS011;6580;42.680;23.324;2024-02-26T05:58:48;27.47;;;17.90;;
13026;SDS011;6580;42.680;23.324;2024-02-26T06:01:16;24.63;;;18.83;;
13026;SDS011;6580;42.680;23.324;2024-02-26T06:03:43;23.70;;;18.80;;
13026;SDS011;6580;42.680;23.324;2024-02-26T06:06:12;24.33;;;19.67;;
13026;SDS011;6580;42.680;23.324;2024-02-26T06:08:40;21.83;;;18.63;;
13026;SDS011;6580;42.680;23.324;2024-02-26T06:11:10;21.10;;;18.23;;
13026;SDS011;6580;42.680;23.324;2024-02-26T06:13:37;22.83;;;17.80;;
13026;SDS011;6580;42.680;23.324;2024-02-26T06:16:05;23.57;;;19.40;;
13026;SDS011;6580;42.680;23.324;2024-02-26T06:18:34;26.03;;;20.07;;
13026;SDS011;6580;42.680;23.324;2024-02-26T06:21:01;29.20;;;20.10;;
13026;SDS011;6580;42.680;23.324;2024-02-26T06:23:30;26.37;;;20.20;;
13026;SDS011;6580;42.680;23.324;2024-02-26T06:25:56;24.30;;;20.30;;
13026;SDS011;6580;42.680;23.324;2024-02-26T06:28:24;28.20;;;21.30;;
13026;SDS011;6580;42.680;23.324;2024-02-26T06:30:51;28.47;;;22.47;;
13026;SDS011;6580;42.680;23.324;2024-02-26T06:33:19;26.30;;;21.57;;
13026;SDS011;6580;42.680;23.324;2024-02-26T06:35:46;27.40;;;22.27;;
13026;SDS011;6580;42.680;23.324;2024-02-26T06:38:13;19.67;;;17.23;;
13026;SDS011;6580;42.680;23.324;2024-02-26T06:40:42;22.77;;;18.70;;
13026;SDS011;6580;42.680;23.324;2024-02-26T06:43:09;18.23;;;14.90;;
13026;SDS011;6580;42.680;23.324;2024-02-26T06:45:36;15.97;;;13.17;;
13026;SDS011;6580;42.680;23.324;2024-02-26T06:48:04;16.43;;;13.10;;
13026;SDS011;6580;42.680;23.324;2024-02-26T06:50:31;15.87;;;13.37;;
13026;SDS011;6580;42.680;23.324;2024-02-26T06:52:58;19.93;;;14.73;;
13026;SDS011;6580;42.680;23.324;2024-02-26T06:55:27;22.63;;;15.03;;
13026;SDS011;6580;42.680;23.324;2024-02-26T06:57:56;19.27;;;14.87;;
13026;SDS011;6580;42.680;23.324;2024-02-26T07:00:23;20.37;;;16.70;;
13026;SDS011;6580;42.680;23.324;2024-02-26T07:02:50;19.47;;;16.23;;
13026;SDS011;6580;42.680;23.324;2024-02-26T07:05:17;20.20;;;16.40;;
13026;SDS011;6580;42.680;23.324;2024-02-26T07:07:44;21.17;;;17.13;;
13026;SDS011;6580;42.680;23.324;2024-02-26T07:10:11;21.00;;;17.70;;
13026;SDS011;6580;42.680;23.324;2024-02-26T07:12:38;22.57;;;18.00;;
13026;SDS011;6580;42.680;23.324;2024-02-26T07:15:07;25.50;;;17.63;;
13026;SDS011;6580;42.680;23.324;2024-02-26T07:17:35;25.27;;;18.73;;
13026;SDS011;6580;42.680;23.324;2024-02-26T07:20:03;25.83;;;19.67;;
13026;SDS011;6580;42.680;23.324;2024-02-26T07:22:30;24.47;;;19.43;;
13026;SDS011;6580;42.680;23.324;2024-02-26T07:24:58;24.87;;;18.47;;
13026;SDS011;6580;42.680;23.324;2024-02-26T07:27:25;22.57;;;18.73;;
13026;SDS011;6580;42.680;23.324;2024-02-26T07:29:51;26.83;;;18.40;;
13026;SDS011;6580;42.680;23.324;2024-02-26T07:32:20;23.13;;;18.00;;
13026;SDS011;6580;42.680;23.324;2024-02-26T07:34:47;23.57;;;19.03;;
13026;SDS011;6580;42.680;23.324;2024-02-26T07:37:15;24.37;;;17.33;;
13026;SDS011;6580;42.680;23.324;2024-02-26T07:39:42;24.43;;;18.30;;
13026;SDS011;6580;42.680;23.324;2024-02-26T07:42:09;21.10;;;17.67;;
13026;SDS011;6580;42.680;23.324;2024-02-26T07:44:36;21.03;;;17.30;;
13026;SDS011;6580;42.680;23.324;2024-02-26T07:47:04;20.37;;;17.20;;
13026;SDS011;6580;42.680;23.324;2024-02-26T07:49:32;24.30;;;19.73;;
13026;SDS011;6580;42.680;23.324;2024-02-26T07:51:59;25.33;;;19.30;;
13026;SDS011;6580;42.680;23.324;2024-02-26T07:54:26;23.47;;;20.50;;
13026;SDS011;6580;42.680;23.324;2024-02-26T07:56:53;25.03;;;21.90;;
13026;SDS011;6580;42.680;23.324;2024-02-26T07:59:20;28.27;;;22.40;;
13026;SDS011;6580;42.680;23.324;2024-02-26T08:01:49;31.13;;;26.33;;
13026;SDS011;6580;42.680;23.324;2024-02-26T08:04:18;31.50;;;26.07;;
13026;SDS011;6580;42.680;23.324;2024-02-26T08:06:50;30.67;;;26.50;;
13026;SDS011;6580;42.680;23.324;2024-02-26T08:09:17;37.60;;;29.37;;
13026;SDS011;6580;42.680;23.324;2024-02-26T08:11:44;33.33;;;26.60;;
13026;SDS011;6580;42.680;23.324;2024-02-26T08:14:11;32.00;;;26.40;;
13026;SDS011;6580;42.680;23.324;2024-02-26T08:16:38;36.07;;;25.57;;
13026;SDS011;6580;42.680;23.324;2024-02-26T08:19:08;27.97;;;24.17;;
13026;SDS011;6580;42.680;23.324;2024-02-26T08:21:39;25.47;;;20.67;;
13026;SDS011;6580;42.680;23.324;2024-02-26T08:24:08;13.47;;;11.83;;
13026;SDS011;6580;42.680;23.324;2024-02-26T08:26:35;26.80;;;21.10;;
13026;SDS011;6580;42.680;23.324;2024-02-26T08:29:02;28.70;;;20.77;;
13026;SDS011;6580;42.680;23.324;2024-02-26T08:31:30;26.37;;;21.37;;
13026;SDS011;6580;42.680;23.324;2024-02-26T08:33:57;21.87;;;19.53;;
13026;SDS011;6580;42.680;23.324;2024-02-26T08:36:24;25.70;;;20.03;;
13026;SDS011;6580;42.680;23.324;2024-02-26T08:38:52;23.70;;;20.37;;
13026;SDS011;6580;42.680;23.324;2024-02-26T08:41:21;22.80;;;16.70;;
13026;SDS011;6580;42.680;23.324;2024-02-26T08:43:48;12.40;;;10.70;;
13026;SDS011;6580;42.680;23.324;2024-02-26T08:46:15;12.50;;;9.90;;
13026;SDS011;6580;42.680;23.324;2024-02-26T08:48:42;11.13;;;8.90;;
13026;SDS011;6580;42.680;23.324;2024-02-26T08:51:09;8.80;;;7.67;;
13026;SDS011;6580;42.680;23.324;2024-02-26T08:53:38;8.80;;;6.70;;
13026;SDS011;6580;42.680;23.324;2024-02-26T08:56:05;9.80;;;6.30;;
13026;SDS011;6580;42.680;23.324;2024-02-26T08:58:34;9.03;;;7.20;;
13026;SDS011;6580;42.680;23.324;2024-02-26T09:01:01;8.17;;;6.50;;
13026;SDS011;6580;42.680;23.324;2024-02-26T09:03:28;9.30;;;7.57;;
13026;SDS011;6580;42.680;23.324;2024-02-26T09:05:55;10.30;;;7.80;;
13026;SDS011;6580;42.680;23.324;2024-02-26T09:08:22;8.87;;;7.43;;
13026;SDS011;6580;42.680;23.324;2024-02-26T09:10:49;8.90;;;8.03;;
13026;SDS011;6580;42.680;23.324;2024-02-26T09:13:18;13.77;;;8.87;;
13026;SDS011;6580;42.680;23.324;2024-02-26T09:15:46;9.07;;;7.83;;
13026;SDS011;6580;42.680;23.324;2024-02-26T09:18:13;12.57;;;9.37;;
13026;SDS011;6580;42.680;23.324;2024-02-26T09:20:41;10.80;;;8.80;;
13026;SDS011;6580;42.680;23.324;2024-02-26T09:23:08;10.63;;;8.47;;
13026;SDS011;6580;42.680;23.324;2024-02-26T09:25:36;11.10;;;8.17;;
13026;SDS011;6580;42.680;23.324;2024-02-26T09:28:03;9.20;;;7.80;;
13026;SDS011;6580;42.680;23.324;2024-02-26T09:30:32;11.47;;;7.33;;
13026;SDS011;6580;42.680;23.324;2024-02-26T09:33:01;8.37;;;7.13;;
13026;SDS011;6580;42.680;23.324;2024-02-26T09:35:28;7.73;;;6.47;;
13026;SDS011;6580;42.680;23.324;2024-02-26T09:37:55;8.13;;;6.70;;
13026;SDS011;6580;42.680;23.324;2024-02-26T09:40:22;8.77;;;7.13;;
13026;SDS011;6580;42.680;23.324;2024-02-26T09:42:49;8.67;;;7.17;;
13026;SDS011;6580;42.680;23.324;2024-02-26T09:45:25;7.87;;;5.77;;
13026;SDS011;6580;42.680;23.324;2024-02-26T09:47:57;6.20;;;5.53;;
13026;SDS011;6580;42.680;23.324;2024-02-26T09:50:26;6.27;;;5.70;;
13026;SDS011;6580;42.680;23.324;2024-02-26T09:52:53;7.67;;;5.73;;
13026;SDS011;6580;42.680;23.324;2024-02-26T09:55:22;6.43;;;5.83;;
13026;SDS011;6580;42.680;23.324;2024-02-26T09:57:50;5.47;;;4.93;;
13026;SDS011;6580;42.680;23.324;2024-02-26T10:00:18;7.00;;;5.03;;
13026;SDS011;6580;42.680;23.324;2024-02-26T10:02:47;7.03;;;5.53;;
13026;SDS011;6580;42.680;23.324;2024-02-26T10:05:16;6.20;;;5.60;;
13026;SDS011;6580;42.680;23.324;2024-02-26T10:07:46;6.60;;;5.30;;
13026;SDS011;6580;42.680;23.324;2024-02-26T10:10:13;5.50;;;5.00;;
13026;SDS011;6580;42.680;23.324;2024-02-26T10:12:41;6.57;;;4.87;;
13026;SDS011;6580;42.680;23.324;2024-02-26T10:15:08;5.63;;;5.13;;
13026;SDS011;6580;42.680;23.324;2024-02-26T10:17:38;5.57;;;5.03;;
13026;SDS011;6580;42.680;23.324;2024-02-26T10:20:12;6.10;;;5.60;;
13026;SDS011;6580;42.680;23.324;2024-02-26T10:22:41;7.17;;;5.90;;
13026;SDS011;6580;42.680;23.324;2024-02-26T10:25:09;7.90;;;5.80;;
13026;SDS011;6580;42.680;23.324;2024-02-26T10:27:37;5.53;;;5.03;;
13026;SDS011;6580;42.680;23.324;2024-02-26T10:30:04;6.27;;;5.63;;
13026;SDS011;6580;42.680;23.324;2024-02-26T10:32:41;6.07;;;4.97;;
13026;SDS011;6580;42.680;23.324;2024-02-26T10:35:09;7.00;;;5.73;;
13026;SDS011;6580;42.680;23.324;2024-02-26T10:37:36;5.53;;;5.03;;
13026;SDS011;6580;42.680;23.324;2024-02-26T10:40:04;7.97;;;5.20;;
13026;SDS011;6580;42.680;23.324;2024-02-26T10:42:36;7.23;;;5.20;;
13026;SDS011;6580;42.680;23.324;2024-02-26T10:45:04;6.17;;;5.57;;
13026;SDS011;6580;42.680;23.324;2024-02-26T10:47:31;6.20;;;5.30;;
13026;SDS011;6580;42.680;23.324;2024-02-26T10:49:59;5.80;;;5.30;;
13026;SDS011;6580;42.680;23.324;2024-02-26T10:52:28;5.53;;;5.00;;
13026;SDS011;6580;42.680;23.324;2024-02-26T10:54:58;6.00;;;5.30;;
13026;SDS011;6580;42.680;23.324;2024-02-26T10:57:28;5.23;;;4.70;;
13026;SDS011;6580;42.680;23.324;2024-02-26T11:00:00;5.87;;;5.37;;
13026;SDS011;6580;42.680;23.324;2024-02-26T11:02:30;6.27;;;5.07;;
13026;SDS011;6580;42.680;23.324;2024-02-26T11:05:01;6.67;;;5.10;;
13026;SDS011;6580;42.680;23.324;2024-02-26T11:07:30;6.23;;;5.70;;
13026;SDS011;6580;42.680;23.324;2024-02-26T11:09:58;6.00;;;5.40;;
13026;SDS011;6580;42.680;23.324;2024-02-26T11:12:27;5.53;;;5.00;;
13026;SDS011;6580;42.680;23.324;2024-02-26T11:14:55;6.50;;;5.90;;
13026;SDS011;6580;42.680;23.324;2024-02-26T11:17:28;6.30;;;5.40;;
13026;SDS011;6580;42.680;23.324;2024-02-26T11:19:57;5.00;;;4.53;;
13026;SDS011;6580;42.680;23.324;2024-02-26T11:22:25;7.03;;;5.03;;
13026;SDS011;6580;42.680;23.324;2024-02-26T11:24:54;6.37;;;5.13;;
13026;SDS011;6580;42.680;23.324;2024-02-26T11:27:23;5.60;;;5.10;;
13026;SDS011;6580;42.680;23.324;2024-02-26T11:29:55;5.50;;;5.00;;
13026;SDS011;6580;42.680;23.324;2024-02-26T11:32:26;6.13;;;5.23;;
13026;SDS011;6580;42.680;23.324;2024-02-26T11:34:55;5.07;;;4.57;;
13026;SDS011;6580;42.680;23.324;2024-02-26T11:37:23;8.67;;;5.60;;
13026;SDS011;6580;42.680;23.324;2024-02-26T11:39:51;6.53;;;5.23;;
13026;SDS011;6580;42.680;23.324;2024-02-26T11:42:22;6.07;;;5.43;;
13026;SDS011;6580;42.680;23.324;2024-02-26T11:44:50;6.87;;;4.90;;
13026;SDS011;6580;42.680;23.324;2024-02-26T11:47:18;7.83;;;4.97;;
13026;SDS011;6580;42.680;23.324;2024-02-26T11:49:47;5.80;;;4.90;;
13026;SDS011;6580;42.680;23.324;2024-02-26T11:52:14;5.20;;;4.70;;
13026;SDS011;6580;42.680;23.324;2024-02-26T11:54:46;6.53;;;5.57;;
13026;SDS011;6580;42.680;23.324;2024-02-26T11:57:22;6.50;;;4.93;;
13026;SDS011;6580;42.680;23.324;2024-02-26T11:59:51;5.27;;;4.77;;
13026;SDS011;6580;42.680;23.324;2024-02-26T12:05:12;5.53;;;4.63;;
13026;SDS011;6580;42.680;23.324;2024-02-26T12:07:42;4.83;;;4.43;;
13026;SDS011;6580;42.680;23.324;2024-02-26T12:12:59;5.20;;;4.33;;
13026;SDS011;6580;42.680;23.324;2024-02-26T12:15:32;4.60;;;4.10;;
13026;SDS011;6580;42.680;23.324;2024-02-26T12:18:03;4.43;;;4.03;;
13026;SDS011;6580;42.680;23.324;2024-02-26T12:20:33;4.80;;;4.33;;
13026;SDS011;6580;42.680;23.324;2024-02-26T12:23:01;9.53;;;5.00;;
13026;SDS011;6580;42.680;23.324;2024-02-26T12:25:31;5.30;;;4.30;;
13026;SDS011;6580;42.680;23.324;2024-02-26T12:27:59;6.10;;;4.67;;
13026;SDS011;6580;42.680;23.324;2024-02-26T12:30:26;5.20;;;4.70;;
13026;SDS011;6580;42.680;23.324;2024-02-26T12:32:57;6.40;;;4.70;;
13026;SDS011;6580;42.680;23.324;2024-02-26T12:35:28;4.20;;;3.80;;
13026;SDS011;6580;42.680;23.324;2024-02-26T12:37:58;5.27;;;4.77;;
13026;SDS011;6580;42.680;23.324;2024-02-26T12:40:28;4.97;;;4.50;;
13026;SDS011;6580;42.680;23.324;2024-02-26T12:42:55;6.00;;;4.77;;
13026;SDS011;6580;42.680;23.324;2024-02-26T12:45:23;5.90;;;4.50;;
13026;SDS011;6580;42.680;23.324;2024-02-26T12:47:53;5.30;;;4.40;;
13026;SDS011;6580;42.680;23.324;2024-02-26T12:50:21;5.67;;;4.40;;
13026;SDS011;6580;42.680;23.324;2024-02-26T12:52:49;6.53;;;4.23;;
13026;SDS011;6580;42.680;23.324;2024-02-26T12:55:19;5.47;;;4.22;;
13026;SDS011;6580;42.680;23.324;2024-02-26T12:57:48;5.17;;;4.67;;
13026;SDS011;6580;42.680;23.324;2024-02-26T13:00:20;6.13;;;4.93;;
13026;SDS011;6580;42.680;23.324;2024-02-26T13:02:50;6.27;;;4.83;;
13026;SDS011;6580;42.680;23.324;2024-02-26T13:05:20;5.23;;;4.30;;
13026;SDS011;6580;42.680;23.324;2024-02-26T13:07:51;6.77;;;4.00;;
13026;SDS011;6580;42.680;23.324;2024-02-26T13:10:21;4.10;;;3.80;;
13026;SDS011;6580;42.680;23.324;2024-02-26T13:12:50;6.60;;;4.73;;
13026;SDS011;6580;42.680;23.324;2024-02-26T13:15:18;5.10;;;4.50;;
13026;SDS011;6580;42.680;23.324;2024-02-26T13:17:46;4.60;;;4.20;;
13026;SDS011;6580;42.680;23.324;2024-02-26T13:20:25;4.53;;;4.13;;
13026;SDS011;6580;42.680;23.324;2024-02-26T13:22:59;5.63;;;4.27;;
13026;SDS011;6580;42.680;23.324;2024-02-26T13:25:28;4.53;;;4.13;;
13026;SDS011;6580;42.680;23.324;2024-02-26T13:28:05;4.57;;;4.13;;
13026;SDS011;6580;42.680;23.324;2024-02-26T13:30:35;4.53;;;4.07;;
13026;SDS011;6580;42.680;23.324;2024-02-26T13:33:10;4.40;;;3.60;;
13026;SDS011;6580;42.680;23.324;2024-02-26T13:35:39;4.50;;;3.93;;
13026;SDS011;6580;42.680;23.324;2024-02-26T13:38:07;5.23;;;3.97;;
13026;SDS011;6580;42.680;23.324;2024-02-26T13:40:40;4.60;;;4.20;;
13026;SDS011;6580;42.680;23.324;2024-02-26T13:43:07;5.20;;;3.60;;
13026;SDS011;6580;42.680;23.324;2024-02-26T13:45:34;4.40;;;4.00;;
13026;SDS011;6580;42.680;23.324;2024-02-26T13:48:03;6.70;;;3.77;;
13026;SDS011;6580;42.680;23.324;2024-02-26T13:50:32;6.97;;;4.20;;
13026;SDS011;6580;42.680;23.324;2024-02-26T13:53:01;5.97;;;4.00;;
13026;SDS011;6580;42.680;23.324;2024-02-26T13:55:28;3.90;;;3.50;;
13026;SDS011;6580;42.680;23.324;2024-02-26T13:58:00;4.83;;;3.93;;
13026;SDS011;6580;42.680;23.324;2024-02-26T14:00:30;5.33;;;4.07;;
13026;SDS011;6580;42.680;23.324;2024-02-26T14:02:58;4.67;;;4.17;;
13026;SDS011;6580;42.680;23.324;2024-02-26T14:05:28;4.23;;;3.80;;
13026;SDS011;6580;42.680;23.324;2024-02-26T14:07:55;4.67;;;4.00;;
13026;SDS011;6580;42.680;23.324;2024-02-26T14:10:22;5.53;;;4.10;;
13026;SDS011;6580;42.680;23.324;2024-02-26T14:12:49;4.03;;;3.63;;
13026;SDS011;6580;42.680;23.324;2024-02-26T14:15:20;4.23;;;3.70;;
13026;SDS011;6580;42.680;23.324;2024-02-26T14:17:49;5.07;;;4.10;;
13026;SDS011;6580;42.680;23.324;2024-02-26T14:20:21;4.97;;;4.00;;
13026;SDS011;6580;42.680;23.324;2024-02-26T14:22:49;5.83;;;3.60;;
13026;SDS011;6580;42.680;23.324;2024-02-26T14:25:18;5.23;;;3.87;;
13026;SDS011;6580;42.680;23.324;2024-02-26T14:27:45;3.77;;;3.47;;
13026;SDS011;6580;42.680;23.324;2024-02-26T14:30:13;5.00;;;4.50;;
13026;SDS011;6580;42.680;23.324;2024-02-26T14:32:42;6.47;;;3.97;;
13026;SDS011;6580;42.680;23.324;2024-02-26T14:35:11;6.17;;;4.47;;
13026;SDS011;6580;42.680;23.324;2024-02-26T14:37:41;4.77;;;3.80;;
13026;SDS011;6580;42.680;23.324;2024-02-26T14:40:09;4.47;;;4.07;;
13026;SDS011;6580;42.680;23.324;2024-02-26T14:42:37;4.87;;;3.87;;
13026;SDS011;6580;42.680;23.324;2024-02-26T14:45:04;4.93;;;3.70;;